Links Sitemap Venhuizerweer voor mobiel

AMSTERDAM SCHIPHOL:
Amsterdam Airport Schiphol, Netherlands (EHAM) 52-18N 004-46E -2M
Aug 19, 2018 - 10:55 AM EDT / 2018.08.19 1455 UTC
Wind: from the WSW (240 degrees) at 17 MPH (15 KT) (direction variable):0
Visibility: greater than 7 mile(s):0
Sky conditions: mostly cloudy
Temperature: 69 F (21 C)
Dew Point: 59 F (15 C)
Relative Humidity: 68%
Pressure (altimeter): 30.06 in. Hg (1018 hPa)
ob: EHAM 191455Z 24015KT 210V270 9999 FEW020 BKN025 21/15 Q1018 NOSIG
cycle: 15
DEELEN:
Deelen, Netherlands (EHDL) 52-04N 005-53E 52M
Aug 19, 2018 - 10:55 AM EDT / 2018.08.19 1455 UTC
Wind: from the SW (220 degrees) at 14 MPH (12 KT) (direction variable):0
Visibility: greater than 7 mile(s):0
Sky conditions: mostly cloudy
Temperature: 73 F (23 C)
Dew Point: 59 F (15 C)
Relative Humidity: 60%
Pressure (altimeter): 30.06 in. Hg (1018 hPa)
ob: EHDL 191455Z AUTO 22012KT 160V270 9999 BKN033 23/15 Q1018 BLU
cycle: 15
DE KOOY:
De Kooy, Netherlands (EHKD) 52-55N 004-47E 14M
Aug 19, 2018 - 10:55 AM EDT / 2018.08.19 1455 UTC
Wind: from the SW (220 degrees) at 22 MPH (19 KT) gusting to 33 MPH (29 KT) (direction variable):0
Visibility: 5 mile(s):0
Sky conditions: overcast
Weather: mist
Temperature: 66 F (19 C)
Dew Point: 60 F (16 C)
Relative Humidity: 82%
Pressure (altimeter): 30.03 in. Hg (1017 hPa)
ob: EHKD 191455Z AUTO 22019G29KT 190V260 9000 BR FEW014 BKN016 OVC019 19/16 Q1017 WHT 23020G30KT 9999 FEW012 SCT022 BKN028 TEMPO FEW008 SCT012 BKN020
cycle: 15
EELDE:
Groningen Airport Eelde, Netherlands (EHGG) 53-08N 006-35E 4M
Aug 19, 2018 - 10:55 AM EDT / 2018.08.19 1455 UTC
Wind: from the SSW (210 degrees) at 14 MPH (12 KT):0
Visibility: greater than 7 mile(s):0
Sky conditions: overcast
Temperature: 69 F (21 C)
Dew Point: 60 F (16 C)
Relative Humidity: 73%
Pressure (altimeter): 30.03 in. Hg (1017 hPa)
ob: EHGG 191455Z AUTO 21012KT 9999 OVC026 21/16 Q1017 NOSIG
cycle: 15
EINDHOVEN:
Eindhoven, Netherlands (EHEH) 51-27N 005-25E 28M
Aug 19, 2018 - 10:55 AM EDT / 2018.08.19 1455 UTC
Wind: from the WSW (240 degrees) at 14 MPH (12 KT) (direction variable):0
Visibility: greater than 7 mile(s):0
Sky conditions: mostly clear
Temperature: 77 F (25 C)
Dew Point: 59 F (15 C)
Relative Humidity: 53%
Pressure (altimeter): 30.09 in. Hg (1019 hPa)
ob: EHEH 191455Z AUTO 24012KT 190V270 9999 FEW035 25/15 Q1019 BLU 22012KT 9999 SCT030
cycle: 15
GILZE-RIJEN:
Gilze-Rijen, Netherlands (EHGR) 51-34N 004-56E 24M
Aug 19, 2018 - 10:55 AM EDT / 2018.08.19 1455 UTC
Wind: from the SW (220 degrees) at 12 MPH (10 KT) (direction variable):0
Visibility: greater than 7 mile(s):0
Sky conditions: mostly clear
Temperature: 75 F (24 C)
Dew Point: 59 F (15 C)
Relative Humidity: 57%
Pressure (altimeter): 30.06 in. Hg (1018 hPa)
ob: EHGR 191455Z AUTO 22010KT 180V260 9999 FEW031 24/15 Q1018 BLU 24010G20KT 9999 SCT032
cycle: 15
LEEUWARDEN:
Leeuwarden, Netherlands (EHLW) 53-13N 005-46E 11M
Aug 19, 2018 - 10:55 AM EDT / 2018.08.19 1455 UTC
Wind: from the SW (230 degrees) at 17 MPH (15 KT):0
Visibility: greater than 7 mile(s):0
Sky conditions: overcast
Temperature: 68 F (20 C)
Dew Point: 59 F (15 C)
Relative Humidity: 72%
Pressure (altimeter): 30.00 in. Hg (1016 hPa)
ob: EHLW 191455Z AUTO 23015KT 9999 FEW021 BKN025 OVC028 20/15 Q1016 BLU 28009KT 9999 FEW036
cycle: 15
MAASTRICHT:
Maastricht Airport Zuid Limburg, Netherlands (EHBK) 50-55N 005-47E 116M
Aug 19, 2018 - 10:55 AM EDT / 2018.08.19 1455 UTC
Wind: from the WSW (250 degrees) at 12 MPH (10 KT) (direction variable):0
Visibility: greater than 7 mile(s):0
Temperature: 77 F (25 C)
Dew Point: 59 F (15 C)
Relative Humidity: 53%
Pressure (altimeter): 30.09 in. Hg (1019 hPa)
ob: EHBK 191455Z AUTO 25010KT 210V290 9999 NCD 25/15 Q1019 NOSIG
cycle: 15
ROTTERDAM ZESTIENHOVEN:
Rotterdam Airport Zestienhoven, Netherlands (EHRD) 51-57N 004-27E -4M
Aug 19, 2018 - 10:55 AM EDT / 2018.08.19 1455 UTC
Wind: from the SW (220 degrees) at 17 MPH (15 KT) (direction variable):0
Visibility: greater than 7 mile(s):0
Sky conditions: overcast
Temperature: 71 F (22 C)
Dew Point: 60 F (16 C)
Relative Humidity: 68%
Pressure (altimeter): 30.06 in. Hg (1018 hPa)
ob: EHRD 191455Z AUTO 22015KT 200V260 9999 OVC027 22/16 Q1018 NOSIG
cycle: 15
SOESTERBERG:
Soesterberg, Netherlands (EHSB) 52-08N 005-17E 25M
Nov 20, 2008 - 04:25 AM EST / 2008.11.20 0925 UTC
Wind: from the W (280 degrees) at 16 MPH (14 KT):0
Visibility: greater than 7 mile(s):0
Temperature: 51 F (11 C)
Dew Point: 48 F (9 C)
Relative Humidity: 87%
Pressure (altimeter): 29.83 in. Hg (1010 hPa)
ob: EHSB 200925Z AUTO 28014KT 9999 // 11/09 Q1010
cycle: 9
TWENTE:
Twenthe, Netherlands (EHTW) 52-16N 006-54E 57M
Apr 07, 2008 - 08:25 AM EDT / 2008.04.07 1225 UTC
Wind: from the N (010 degrees) at 7 MPH (6 KT):0
Sky conditions: mostly cloudy
Temperature: 46 F (8 C)
Dew Point: 24 F (-4 C)
Relative Humidity: 42%
Pressure (altimeter): 29.59 in. Hg (1002 hPa)
ob: EHTW 071225Z AUTO 01006KT //// // BKN200/// 08/M04 Q1002 RE//
cycle: 12
VALKENBURG:
Valkenburg, Netherlands (EHVB) 52-11N 004-25E 2M
Apr 01, 2010 - 03:55 AM EDT / 2010.04.01 0755 UTC
Wind: from the WSW (250 degrees) at 20 MPH (17 KT):0
Sky conditions: mostly cloudy
Temperature: 41 F (5 C)
Dew Point: 33 F (1 C)
Relative Humidity: 75%
Pressure (altimeter): 29.62 in. Hg (1003 hPa)
ob: EHVB 010755Z AUTO 25017KT 9999NDV FEW021/// BKN037/// 05/01 Q1003 BLU
cycle: 8
VLIELAND:
Vlieland, Netherlands (EHVL) 53-15N 004-55E 12M
Aug 19, 2018 - 10:55 AM EDT / 2018.08.19 1455 UTC
Wind: from the SW (230 degrees) at 29 MPH (25 KT):0
Visibility: 4 mile(s):0
Sky conditions: mostly cloudy
Weather: mist
Temperature: 66 F (19 C)
Dew Point: 62 F (17 C)
Relative Humidity: 88%
Pressure (altimeter): 30.00 in. Hg (1016 hPa)
ob: EHVL 191455Z AUTO 23025KT 7000 BR FEW009 SCT011 BKN016 19/17 Q1016 GRN
cycle: 15
VOLKEL:
Volkel, Netherlands (EHVK) 51-39N 005-42E 21M
Aug 19, 2018 - 10:55 AM EDT / 2018.08.19 1455 UTC
Wind: from the WSW (240 degrees) at 16 MPH (14 KT) (direction variable):0
Visibility: greater than 7 mile(s):0
Sky conditions: mostly clear
Temperature: 75 F (24 C)
Dew Point: 59 F (15 C)
Relative Humidity: 57%
Pressure (altimeter): 30.06 in. Hg (1018 hPa)
ob: EHVK 191455Z AUTO 24014KT 190V260 9999 FEW032 24/15 Q1018 BLU
cycle: 15
WOENSDRECHT:
Woensdrecht, Netherlands (EHWO) 51-27N 004-20E 17M
Aug 19, 2018 - 10:55 AM EDT / 2018.08.19 1455 UTC
Wind: from the SW (230 degrees) at 14 MPH (12 KT) (direction variable):0
Visibility: greater than 7 mile(s):0
Sky conditions: mostly cloudy
Temperature: 73 F (23 C)
Dew Point: 59 F (15 C)
Relative Humidity: 60%
Pressure (altimeter): 30.09 in. Hg (1019 hPa)
ob: EHWO 191455Z AUTO 23012KT 200V260 9999 BKN029 23/15 Q1019 BLU
cycle: 15
Copyright © 2005 - 2018 Venhuizerweer - Alle Rechten Voorbehouden


54.198.126.110